Tiempo atmosférico en la estación meteorológica de Villalón De Campos, Valladolid (763 m.)



Fecha
DESCASC
Temp. máxima en grados centígrados (hora)
DESCASC
Temp. mínima en grados centígrados (hora)
DESCASC
Temp. media en grados centígrados
DESCASC
Racha de viento máxima en m/sg (hora)
DESCASC
Velocidad máxima media en intervalos de 10 minutos(hora)
DESCASC
Precipitaciones diarias en mm
DESCASC
Precipitaciones de 00:00 a 06:00 en mm
DESCASC
Precipitaciones de 06:00 a 12:00 en mm
DESCASC
Precipitaciones de 12:00 a 18:00 en mm
DESCASC
Precipitaciones de 18:00 a 24:00 en mm
DESCASC
17-09-2020 28.3 (17:00) 16.9 (07:20) 22.6 11.11 (17:50) 6.39 (18:30) 0 0 0 0 0
15-09-2020 28.7 (17:40) 14 (07:50) 21.4 8.89 (17:00) 5.28 (17:20) 0.8 0.8 0 0 0
14-09-2020 31.5 (16:40) 16.1 (08:10) 23.8 8.06 (17:00) 5 (18:40) 1.6 0 0 0 1.6
13-09-2020 34 (17:20) 14.5 (00:00) 24.3 6.94 (17:10) 3.89 (16:40) 0 0 0 0 0
12-09-2020 32.3 (18:20) 13.5 (08:00) 22.9 6.39 (13:40) 3.33 (10:30) 0 0 0 0 0
11-09-2020 30.3 (16:20) 12.1 (00:00) 21.2 5.83 (05:00) 3.06 (18:00) 0 0 0 0 0
10-09-2020 30.3 (19:10) 11.9 (00:00) 21.1 7.22 (23:30) 3.06 (23:30) 0 0 0 0 0
09-09-2020 29.4 (18:20) 9.6 (08:00) 19.5 6.67 (16:10) 3.33 (01:50) 0 0 0 0 0
08-09-2020 27.2 (18:20) 8.7 (00:00) 18 9.72 (11:30) 5 (11:00) 0 0 0 0 0
07-09-2020 21.9 (17:40) 9.8 (08:00) 15.8 11.67 (11:30) 6.39 (13:20) 0 0 0 0 0
06-09-2020 24.8 (17:00) 13.1 (00:00) 18.9 10.83 (00:20) 5.83 (00:20) 0 0 0 0 0
05-09-2020 29.8 (17:10) 13.6 (00:00) 21.7 10.83 (21:40) 5.28 (21:40) 0 0 0 0 0
04-09-2020 34.5 (16:40) 13.4 (00:00) 23.9 6.11 (23:59) 3.61 (16:00) 0 0 0 0 0
03-09-2020 31.7 (17:50) 9.2 (00:00) 20.5 5.83 (15:00) 2.78 (00:10) 0 0 0 0 0
02-09-2020 28.1 (18:10) 10.8 (00:00) 19.5 9.44 (11:20) 4.44 (09:50) 0 0 0 0 0
01-09-2020 28.2 (17:20) 12.3 (00:00) 20.3 10.56 (21:10) 5 (21:20) 0 0 0 0 0
31-08-2020 23.8 (16:10) 6.1 (00:00) 14.9 8.33 (15:40) 3.33 (14:10) 0 0 0 0 0
30-08-2020 21.3 (17:20) 4.7 (00:00) 13 8.33 (21:50) 3.89 (21:00) 0 0 0 0 0
29-08-2020 20.5 (17:50) 8 (00:00) 14.3 12.78 (16:40) 8.33 (16:40) 0 0 0 0 0
28-08-2020 25.1 (17:20) 15.4 (00:00) 20.3 12.5 (16:10) 7.5 (16:30) 0 0 0 0 0
27-08-2020 32.7 (18:20) 14.6 (00:00) 23.7 9.44 (22:50) 6.67 (20:10) 0 0 0 0 0
26-08-2020 33.5 (17:40) 12.9 (00:00) 23.2 7.78 (18:20) 4.17 (17:10) 0 0 0 0 0
25-08-2020 34.1 (18:40) 10.7 (00:00) 22.4 10 (17:40) 5.56 (16:10) 0 0 0 0 0
24-08-2020 30.7 (18:00) 12.4 (07:30) 21.6 8.06 (01:30) 3.61 (00:50) 0 0 0 0 0
23-08-2020 29.3 (19:20) 12.4 (00:00) 20.8 7.78 (23:20) 4.17 (10:00) 0 0 0 0 0
22-08-2020 27.4 (17:30) 9 (00:00) 18.2 7.78 (23:20) 4.17 (00:40) 0 0 0 0 0
21-08-2020 26 (17:00) 15.8 (00:20) 20.9 11.39 (16:00) 6.67 (15:50) 0.4 0.4 0 0 0
20-08-2020 30.6 (15:30) 14.4 (00:00) 22.5 15.83 (19:10) 10 (19:00) 4 0 0 0 4

Gráficas

Temp. máximas Temp. mínimas Temp. medias Precipitaciones Rachas de viento máximas Velocidades máximas media en intervalos de 10 minutos

Datos horarios

Fecha y hora oficial Temperatura (ºC) Velocidad del viento (km/h) Dirección del viento Racha (km/h) Dirección de racha Precipitación (mm) Presión (hPa) Tendencia (hPa) Humedad (%)
2020-09-18 23:00:00 13.9 8 Este 21 Sudeste 0.2 -- -- 89
2020-09-18 22:00:00 14.8 3 Sudeste 11 Sur 0.4 -- -- 89
2020-09-18 21:00:00 15.1 8 Sur 31 Sur 0 -- -- 82
2020-09-18 20:00:00 15.4 23 Sur 46 Sur 0 -- -- 82
2020-09-18 19:00:00 22 7 Sudeste 23 Sur 0 -- -- 45
2020-09-18 18:00:00 22.4 13 Sur 25 Sur 0 -- -- 43
2020-09-18 17:00:00 23.6 14 Sur 30 Oeste 0 -- -- 42
2020-09-18 16:00:00 24.8 14 Sur 27 Sudoeste 0 -- -- 43
2020-09-18 15:00:00 23.1 15 Sudoeste 28 Sur 0 -- -- 47
2020-09-18 14:00:00 21.5 17 Sur 28 Sudeste 0 -- -- 52
2020-09-18 13:00:00 20.7 14 Sur 30 Sur 0 -- -- 59
2020-09-18 12:00:00 19.3 16 Sur 28 Sur 0 -- -- 69
2020-09-18 11:00:00 16.4 17 Sur 26 Sur 0 -- -- 84
2020-09-18 10:00:00 13.1 13 Sur 19 Sur 0 -- -- 95
2020-09-18 09:00:00 12.2 8 Este 34 Sudoeste 2.6 -- -- 98
2020-09-18 08:00:00 13.9 11 Sudoeste 16 Sudoeste 0 -- -- 98
2020-09-18 07:00:00 14.9 3 Sudeste 17 Sur 3.4 -- -- 98
2020-09-18 06:00:00 15.1 10 Sudeste 18 Sudeste 1.4 -- -- 94
2020-09-18 05:00:00 15.8 3 Sudeste 8 Este 0 -- -- 86
2020-09-18 04:00:00 15.9 3 Este 9 Nordeste 0 -- -- 86
2020-09-18 03:00:00 15.7 4 Este 15 Sudeste 0 -- -- 87
2020-09-18 02:00:00 15.5 10 Sur 25 Sur 0 -- -- 87
2020-09-18 01:00:00 16.5 16 Sudoeste 41 Sur 0.2 -- -- 82
2020-09-18 00:00:00 20.6 18 Sur 30 Sur 0 -- -- 57
2020-09-17 23:00:00 20.6 9 Sudeste 19 Sudeste 0 -- -- 62
2020-09-17 22:00:00 20.9 9 Sudeste 21 Este 0 -- -- 60
2020-09-17 21:00:00 22.1 16 Sudeste 27 Sur 0 -- -- 56
2020-09-17 20:00:00 24.1 16 Sudeste 37 Sudeste 0 -- -- 49
2020-09-17 19:00:00 25.7 20 Sudeste 37 Sur 0 -- -- 41
2020-09-17 18:00:00 27.8 23 Sur 40 Sudeste 0 -- -- 37
2020-09-17 17:00:00 28.3 18 Sur 30 Sudeste 0 -- -- 37
2020-09-17 16:00:00 26.1 13 Sudeste 25 Sudeste 0 -- -- 45
2020-09-17 15:00:00 23.7 4 Sur 24 Sur 0 -- -- 53
2020-09-17 14:00:00 24.2 16 Sur 31 Sudeste 0 -- -- 50
2020-09-17 13:00:00 22.8 12 Sudeste 23 Este 0 -- -- 57
2020-09-17 12:00:00 19.5 12 Sudeste 30 Sur 0 -- -- 71
2020-09-17 11:00:00 20.3 15 Sur 21 Sudeste 0 -- -- 64
2020-09-17 10:00:00 19 4 Este 13 Este 0 -- -- 74
2020-09-17 09:00:00 17.5 4 Sudeste 14 Este 0 -- -- 79
2020-09-17 08:00:00 17.1 6 Este 17 Este 0 -- -- 79
2020-09-17 07:00:00 17.1 5 Este 11 Sudeste 0 -- -- 80
2020-09-17 06:00:00 17.4 3 Sudeste 9 Sudeste 0 -- -- 79
2020-09-17 05:00:00 17.7 3 Sudeste 12 Nordeste 0 -- -- 76
2020-09-17 04:00:00 17.5 6 Nordeste 18 Sudeste 0 -- -- 76
2020-09-17 03:00:00 19.2 12 Sur 39 Sudeste 0 -- -- 61
2020-09-17 02:00:00 19.9 3 Sudeste 20 Este 0 -- -- 69
2020-09-17 01:00:00 21.3 11 Nordeste 29 Este 0 -- -- 65
2020-09-17 00:00:00 21.1 9 Nordeste 13 Nordeste 0 -- -- 61
2020-09-16 23:00:00 21.7 5 Oeste 20 Nordeste 0 -- -- 56
2020-09-16 22:00:00 22.9 11 Nordeste 17 Norte 0 -- -- 45
2020-09-16 21:00:00 23.7 9 Nordeste 14 Norte 0 -- -- 44
2020-09-16 20:00:00 25.6 5 Nordeste 12 Sudeste 0 -- -- 39
2020-09-16 19:00:00 27.6 7 Este 17 Este 0 -- -- 35
2020-09-16 18:00:00 28.2 7 Este 19 Sudeste 0 -- -- 33
2020-09-16 17:00:00 28.4 10 Nordeste 18 Nordeste 0 -- -- 35
2020-09-16 16:00:00 29 9 Sudeste 24 Este 0 -- -- 33
2020-09-16 15:00:00 27.7 7 Este 18 Sudeste 0 -- -- 37
2020-09-16 14:00:00 26.8 6 Sudeste 17 Este 0 -- -- 39
2020-09-16 13:00:00 26.6 5 Este 14 Este 0 -- -- 41
2020-09-16 12:00:00 25 5 Sudeste 12 Este 0 -- -- 46
2020-09-16 11:00:00 21.2 5 Este 14 Este 0 -- -- 58
2020-09-16 10:00:00 17.7 7 Este 12 Este 0 -- -- 74
2020-09-16 09:00:00 14.2 3 Este 8 Este 0 -- -- 87
2020-09-16 08:00:00 10.6 2 Nordeste 5 Nordeste 0 -- -- 94
2020-09-16 07:00:00 10.8 4 Noroeste 6 Noroeste 0 -- -- 92
2020-09-16 06:00:00 11 0 Calma 7 Sudoeste 0 -- -- 92
2020-09-16 05:00:00 11.4 0 Calma 4 Norte 0 -- -- 90
2020-09-16 04:00:00 14.6 3 Norte 9 Nordeste 0 -- -- 77
2020-09-16 03:00:00 14.2 2 Norte 4 Noroeste 0 -- -- 79
2020-09-16 02:00:00 14.4 2 Oeste 7 Sudoeste 0 -- -- 80
2020-09-16 01:00:00 15 0 Calma 11 Sudeste 0 -- -- 78
2020-09-16 00:00:00 15.2 5 Sudeste 8 Oeste 0 -- -- 78
2020-09-15 23:00:00 15.7 0 Calma 5 Noroeste 0 -- -- 76
2020-09-15 22:00:00 17.1 0 Calma 4 Noroeste 0 -- -- 72
2020-09-15 21:00:00 20.2 2 Sudeste 5 Sudeste 0 -- -- 57
2020-09-15 20:00:00 25.9 3 Sur 17 Sur 0 -- -- 43
2020-09-15 19:00:00 26.7 10 Sur 22 Sudoeste 0 -- -- 38
2020-09-15 18:00:00 28.1 13 Sudoeste 30 Sudoeste 0 -- -- 37
2020-09-15 17:00:00 27.8 17 Sudoeste 32 Sudoeste 0 -- -- 39
2020-09-15 16:00:00 27 11 Sur 24 Sudoeste 0 -- -- 40
2020-09-15 15:00:00 26 13 Sudoeste 24 Oeste 0 -- -- 45
2020-09-15 14:00:00 25.3 13 Sudoeste 22 Sudoeste 0 -- -- 49
2020-09-15 13:00:00 24.6 5 Sur 14 Sur 0 -- -- 57
2020-09-15 12:00:00 23.6 8 Sur 13 Sur 0 -- -- 58
2020-09-15 11:00:00 20.6 8 Sudeste 13 Sudeste 0 -- -- 71
2020-09-15 10:00:00 18.1 6 Sudeste 12 Sudeste 0 -- -- 83
2020-09-15 09:00:00 15 6 Este 12 Este 0 -- -- 91
2020-09-15 08:00:00 14 5 Este 10 Este 0 -- -- 96
2020-09-15 07:00:00 14.2 4 Este 12 Nordeste 0 -- -- 95
2020-09-15 06:00:00 14.9 5 Nordeste 13 Nordeste 0 -- -- 91
2020-09-15 05:00:00 15.1 4 Nordeste 8 Este 0 -- -- 87
2020-09-15 04:00:00 15.7 0 Calma 9 Nordeste 0 -- -- 91
2020-09-15 03:00:00 16.9 3 Sudeste 11 Este 0 -- -- 88
2020-09-15 02:00:00 16.8 3 Este 14 Nordeste 0 -- -- 90
2020-09-15 01:00:00 16.9 6 Sudeste 20 Sur 0.8 -- -- 90
2020-09-15 00:00:00 17.3 4 Sudeste 17 Sudeste 0.2 -- -- 87
2020-09-14 23:00:00 18.1 5 Este 18 Este 0.6 -- -- 76
2020-09-14 22:00:00 18.3 6 Sudeste 17 Este 0.8 -- -- 82
2020-09-14 21:00:00 19 5 Este 26 Este 0 -- -- 70
2020-09-14 20:00:00 21.7 14 Sur 29 Sur 0 -- -- 60
2020-09-14 19:00:00 26.9 13 Oeste 24 Sudoeste 0 -- -- 37
2020-09-14 18:00:00 29.9 13 Sur 27 Sudoeste 0 -- -- 31
2020-09-14 17:00:00 31 13 Sudoeste 29 Sudoeste 0 -- -- 31
2020-09-14 16:00:00 29 12 Sur 23 Sur 0 -- -- 34
2020-09-14 15:00:00 27.9 6 Oeste 20 Sudoeste 0 -- -- 37
2020-09-14 14:00:00 25.4 10 Sudoeste 24 Sudoeste 0 -- -- 42
2020-09-14 13:00:00 25.8 13 Sudoeste 23 Sudoeste 0 -- -- 39
2020-09-14 12:00:00 26.6 12 Sur 22 Sudoeste 0 -- -- 38
2020-09-14 11:00:00 25 10 Sur 19 Sudeste 0 -- -- 42
2020-09-14 10:00:00 22.3 6 Este 17 Este 0 -- -- 46
2020-09-14 09:00:00 17.2 6 Este 12 Este 0 -- -- 56
2020-09-14 08:00:00 16.2 5 Este 10 Este 0 -- -- 57
2020-09-14 07:00:00 17.1 6 Sudeste 13 Este 0 -- -- 57
2020-09-14 06:00:00 17.8 4 Este 13 Este 0 -- -- 51
2020-09-14 05:00:00 18.9 6 Este 14 Este 0 -- -- 48
2020-09-14 04:00:00 18.4 5 Este 14 Sur 0 -- -- 49
2020-09-14 03:00:00 19.9 7 Sudoeste 16 Sudoeste 0 -- -- 44
2020-09-14 02:00:00 20.6 8 Sudoeste 17 Sur 0 -- -- 42
2020-09-14 01:00:00 19.3 5 Sur 13 Sur 0 -- -- 46
2020-09-14 00:00:00 22.3 9 Sudeste 14 Sudeste 0 -- -- 39
2020-09-13 23:00:00 19.5 3 Sudeste 18 Sur 0 -- -- 45
2020-09-13 22:00:00 19.6 2 Noroeste 3 Noroeste 0 -- -- 45
2020-09-13 21:00:00 22.2 0 Calma 6 Nordeste 0 -- -- 38
2020-09-13 20:00:00 29.1 2 Norte 14 Sudoeste 0 -- -- 30
2020-09-13 19:00:00 32.9 7 Sudoeste 17 Sudoeste 0 -- -- 23
2020-09-13 18:00:00 32.9 10 Sur 25 Sudoeste 0 -- -- 23
2020-09-13 17:00:00 32.4 9 Sur 22 Sudoeste 0 -- -- 23
2020-09-13 16:00:00 31.5 12 Oeste 21 Oeste 0 -- -- 24
2020-09-13 15:00:00 32.7 9 Sudoeste 18 Sudoeste 0 -- -- 24
2020-09-13 14:00:00 31.1 9 Sur 14 Sudoeste 0 -- -- 27
2020-09-13 13:00:00 29.1 5 Este 14 Este 0 -- -- 30
2020-09-13 12:00:00 27.5 5 Sudeste 14 Este 0 -- -- 32
2020-09-13 11:00:00 23.5 8 Este 15 Sudeste 0 -- -- 39
2020-09-13 10:00:00 20.8 8 Este 15 Este 0 -- -- 43
2020-09-13 09:00:00 16.4 5 Nordeste 10 Nordeste 0 -- -- 50
2020-09-13 08:00:00 14.7 6 Nordeste 14 Este 0 -- -- 52
2020-09-13 07:00:00 15.3 7 Este 17 Nordeste 0 -- -- 51
2020-09-13 06:00:00 16 10 Nordeste 19 Nordeste 0 -- -- 50
2020-09-13 05:00:00 16.3 10 Nordeste 19 Nordeste 0 -- -- 54
2020-09-13 04:00:00 16.5 8 Nordeste 16 Este 0 -- -- 52
2020-09-13 03:00:00 17.2 9 Nordeste 15 Nordeste 0 -- -- 49
2020-09-13 02:00:00 17.7 8 Nordeste 15 Este 0 -- -- 46
2020-09-13 01:00:00 18.1 8 Nordeste 17 Nordeste 0 -- -- 44
2020-09-13 00:00:00 19.2 6 Nordeste 15 Este 0 -- -- 40
2020-09-12 23:00:00 20.3 6 Nordeste 18 Nordeste 0 -- -- 33
2020-09-12 22:00:00 22 7 Nordeste 16 Este 0 -- -- 29
2020-09-12 21:00:00 24.2 6 Este 14 Este 0 -- -- 26
2020-09-12 20:00:00 29 5 Nordeste 14 Nordeste 0 -- -- 20
2020-09-12 19:00:00 31.1 5 Nordeste 22 Este 0 -- -- 19
2020-09-12 18:00:00 31.4 9 Este 20 Este 0 -- -- 19
2020-09-12 17:00:00 30.9 8 Nordeste 23 Nordeste 0 -- -- 22
2020-09-12 16:00:00 30.3 10 Este 23 Este 0 -- -- 24
2020-09-12 15:00:00 29.3 12 Nordeste 21 Este 0 -- -- 25
2020-09-12 14:00:00 28.9 10 Este 23 Sudeste 0 -- -- 22
2020-09-12 13:00:00 27.8 8 Este 18 Este 0 -- -- 32
2020-09-12 12:00:00 24.7 10 Este 21 Este 0 -- -- 43
2020-09-12 11:00:00 21.6 9 Este 22 Nordeste 0 -- -- 55
2020-09-12 10:00:00 18.7 8 Este 18 Nordeste 0 -- -- 66
2020-09-12 09:00:00 15 6 Este 12 Nordeste 0 -- -- 78
2020-09-12 08:00:00 13.5 5 Nordeste 13 Nordeste 0 -- -- 84
2020-09-12 07:00:00 14.3 8 Nordeste 16 Este 0 -- -- 83
2020-09-12 06:00:00 14.8 7 Nordeste 15 Nordeste 0 -- -- 82
2020-09-12 05:00:00 15.7 6 Este 17 Este 0 -- -- 75
2020-09-12 04:00:00 16.2 9 Nordeste 18 Este 0 -- -- 73
2020-09-12 03:00:00 17 9 Nordeste 19 Nordeste 0 -- -- 71
2020-09-12 02:00:00 17.7 10 Nordeste 18 Este 0 -- -- 70
2020-09-12 01:00:00 18.5 9 Nordeste 19 Nordeste 0 -- -- 63
2020-09-12 00:00:00 19.2 8 Nordeste 20 Nordeste 0 -- -- 49
2020-09-11 23:00:00 19.5 7 Nordeste 13 Nordeste 0 -- -- 38
2020-09-11 22:00:00 17.2 2 Noroeste 3 Noroeste 0 -- -- 46
2020-09-11 21:00:00 20.8 0 Calma 6 Norte 0 -- -- 39
2020-09-11 20:00:00 28.6 4 Norte 13 Este 0 -- -- 28
2020-09-11 19:00:00 29.7 6 Nordeste 15 Noroeste 0 -- -- 26
2020-09-11 18:00:00 29.7 11 Noroeste 20 Noroeste 0 -- -- 26
2020-09-11 17:00:00 29.6 6 Noroeste 18 Norte 0 -- -- 29
2020-09-11 16:00:00 28.4 7 Norte 17 Norte 0 -- -- 30
2020-09-11 15:00:00 28 3 Noroeste 17 Nordeste 0 -- -- 33
2020-09-11 14:00:00 27.3 5 Este 17 Norte 0 -- -- 35
2020-09-11 13:00:00 25.5 7 Nordeste 21 Este 0 -- -- 39
2020-09-11 12:00:00 23.9 7 Este 19 Este 0 -- -- 46
2020-09-11 11:00:00 21.5 8 Este 20 Este 0 -- -- 54
2020-09-11 10:00:00 18.5 10 Nordeste 18 Nordeste 0 -- -- 63
2020-09-11 09:00:00 14.9 7 Nordeste 11 Nordeste 0 -- -- 74
2020-09-11 08:00:00 12.1 4 Nordeste 13 Nordeste 0 -- -- 81
2020-09-11 07:00:00 14 8 Nordeste 16 Este 0 -- -- 74
2020-09-11 06:00:00 14.4 7 Nordeste 19 Nordeste 0 -- -- 71
2020-09-11 05:00:00 15.3 9 Nordeste 21 Este 0 -- -- 66
2020-09-11 04:00:00 15.6 8 Nordeste 15 Este 0 -- -- 65
2020-09-11 03:00:00 16.1 5 Este 17 Este 0 -- -- 66
2020-09-11 02:00:00 16.7 8 Nordeste 18 Nordeste 0 -- -- 67
2020-09-11 01:00:00 17.9 9 Nordeste 19 Nordeste 0 -- -- 66
2020-09-11 00:00:00 19.1 8 Este 26 Este 0 -- -- 62
2020-09-10 23:00:00 20.3 10 Nordeste 21 Este 0 -- -- 56
2020-09-10 22:00:00 17.6 0 Calma 3 Norte 0 -- -- 46
2020-09-10 21:00:00 21.1 0 Calma 5 Este 0 -- -- 40
2020-09-10 20:00:00 28.3 3 Este 11 Nordeste 0 -- -- 28
2020-09-10 19:00:00 30 6 Sudeste 14 Este 0 -- -- 27
2020-09-10 18:00:00 28.7 9 Nordeste 18 Sudeste 0 -- -- 28
2020-09-10 17:00:00 28.7 8 Norte 17 Nordeste 0 -- -- 28
2020-09-10 16:00:00 28 8 Nordeste 17 Este 0 -- -- 30
2020-09-10 15:00:00 27.5 5 Norte 15 Nordeste 0 -- -- 32
2020-09-10 14:00:00 27.4 4 Sudeste 15 Nordeste 0 -- -- 34
2020-09-10 13:00:00 25.5 6 Nordeste 16 Nordeste 0 -- -- 37
2020-09-10 12:00:00 23.2 6 Este 15 Este 0 -- -- 43
2020-09-10 11:00:00 20.9 8 Este 17 Este 0 -- -- 49
2020-09-10 10:00:00 18 8 Nordeste 14 Nordeste 0 -- -- 57
2020-09-10 09:00:00 14.1 4 Norte 8 Nordeste 0 -- -- 74
2020-09-10 08:00:00 12.6 4 Norte 12 Nordeste 0 -- -- 77
2020-09-10 07:00:00 13.4 6 Nordeste 15 Nordeste 0 -- -- 75
2020-09-10 06:00:00 14 8 Nordeste 15 Este 0 -- -- 74
2020-09-10 05:00:00 14.9 8 Este 15 Nordeste 0 -- -- 71
2020-09-10 04:00:00 15 6 Este 15 Nordeste 0 -- -- 72
2020-09-10 03:00:00 15.5 7 Nordeste 14 Este 0 -- -- 70
2020-09-10 02:00:00 16.4 7 Este 15 Nordeste 0 -- -- 66
2020-09-10 01:00:00 17.1 8 Nordeste 18 Nordeste 0 -- -- 63
2020-09-10 00:00:00 18.4 9 Nordeste 22 Nordeste 0 -- -- 59
2020-09-09 23:00:00 19.6 7 Nordeste 18 Nordeste 0 -- -- 56
2020-09-09 22:00:00 20.3 8 Nordeste 16 Este 0 -- -- 45
2020-09-09 21:00:00 21.2 0 Calma 12 Este 0 -- -- 33
2020-09-09 20:00:00 27.4 5 Nordeste 15 Nordeste 0 -- -- 25
2020-09-09 19:00:00 28.8 4 Nordeste 19 Nordeste 0 -- -- 23
2020-09-09 18:00:00 28.9 9 Nordeste 20 Noroeste 0 -- -- 23
2020-09-09 17:00:00 28.6 6 Noroeste 24 Norte 0 -- -- 23
2020-09-09 16:00:00 27.6 7 Nordeste 22 Nordeste 0 -- -- 25
2020-09-09 15:00:00 26.9 6 Norte 14 Nordeste 0 -- -- 26
2020-09-09 14:00:00 26.7 6 Sur 15 Norte 0 -- -- 28
2020-09-09 13:00:00 25 7 Nordeste 13 Nordeste 0 -- -- 31
2020-09-09 12:00:00 23.5 4 Nordeste 15 Este 0 -- -- 32
2020-09-09 11:00:00 21.4 6 Sudeste 14 Nordeste 0 -- -- 40
2020-09-09 10:00:00 17.9 9 Este 18 Este 0 -- -- 50
2020-09-09 09:00:00 13.5 6 Nordeste 13 Nordeste 0 -- -- 63
2020-09-09 08:00:00 9.6 4 Norte 10 Nordeste 0 -- -- 76
2020-09-09 07:00:00 12.1 6 Nordeste 15 Este 0 -- -- 69
2020-09-09 06:00:00 12.5 8 Nordeste 15 Nordeste 0 -- -- 68
2020-09-09 05:00:00 12.7 7 Nordeste 15 Nordeste 0 -- -- 67
2020-09-09 04:00:00 13.3 9 Nordeste 20 Este 0 -- -- 64
2020-09-09 03:00:00 14.1 10 Nordeste 19 Nordeste 0 -- -- 62
2020-09-09 02:00:00 15.2 10 Nordeste 21 Nordeste 0 -- -- 59
2020-09-09 01:00:00 15.7 9 Nordeste 21 Nordeste 0 -- -- 59
2020-09-09 00:00:00 16.7 10 Nordeste 17 Nordeste 0 -- -- 56
2020-09-08 23:00:00 17.1 8 Nordeste 15 Nordeste 0 -- -- 43
2020-09-08 22:00:00 18.2 6 Nordeste 13 Nordeste 0 -- -- 42
2020-09-08 21:00:00 21.2 7 Nordeste 14 Nordeste 0 -- -- 35
2020-09-08 20:00:00 24.8 8 Nordeste 19 Este 0 -- -- 28
2020-09-08 19:00:00 26.8 8 Este 20 Nordeste 0 -- -- 25
2020-09-08 18:00:00 26.3 13 Este 26 Nordeste 0 -- -- 27
2020-09-08 17:00:00 26.6 12 Este 24 Este 0 -- -- 27
2020-09-08 16:00:00 25 10 Este 33 Nordeste 0 -- -- 31
2020-09-08 15:00:00 23.6 14 Este 29 Este 0 -- -- 34
2020-09-08 14:00:00 22.4 14 Este 30 Este 0 -- -- 36
2020-09-08 13:00:00 20.5 15 Este 30 Este 0 -- -- 40
2020-09-08 12:00:00 19.2 13 Este 35 Nordeste 0 -- -- 46
2020-09-08 11:00:00 16.6 18 Este 34 Nordeste 0 -- -- 57
2020-09-08 10:00:00 14 16 Este 31 Nordeste 0 -- -- 68
2020-09-08 09:00:00 10.7 8 Nordeste 18 Este 0 -- -- 82
2020-09-08 08:00:00 8.9 8 Este 20 Este 0 -- -- 87
2020-09-08 07:00:00 9.3 5 Este 12 Nordeste 0 -- -- 83
2020-09-08 06:00:00 9.9 5 Este 23 Nordeste 0 -- -- 80
2020-09-08 05:00:00 10.4 13 Nordeste 26 Nordeste 0 -- -- 78
2020-09-08 04:00:00 10.4 12 Nordeste 27 Este 0 -- -- 77
2020-09-08 03:00:00 10.7 14 Nordeste 28 Nordeste 0 -- -- 75
2020-09-08 02:00:00 11 13 Nordeste 31 Nordeste 0 -- -- 70
2020-09-08 01:00:00 10.2 6 Sudeste 21 Nordeste 0 -- -- 74
2020-09-08 00:00:00 12.3 12 Este 34 Este 0 -- -- 63
2020-09-07 23:00:00 13.5 17 Nordeste 34 Nordeste 0 -- -- 62
2020-09-07 22:00:00 14.9 20 Nordeste 39 Este 0 -- -- 60
2020-09-07 21:00:00 16.4 17 Nordeste 37 Nordeste 0 -- -- 55
2020-09-07 20:00:00 19.2 17 Nordeste 36 Nordeste 0 -- -- 46
2020-09-07 19:00:00 20.6 19 Este 37 Este 0 -- -- 42
2020-09-07 18:00:00 21.2 21 Nordeste 40 Este 0 -- -- 40
2020-09-07 17:00:00 21.4 20 Nordeste 39 Este 0 -- -- 40
2020-09-07 16:00:00 20.9 18 Nordeste 35 Este 0 -- -- 42
2020-09-07 15:00:00 20.6 18 Nordeste 41 Este 0 -- -- 41
2020-09-07 14:00:00 19.9 19 Nordeste 39 Nordeste 0 -- -- 42
2020-09-07 13:00:00 19.1 17 Nordeste 39 Nordeste 0 -- -- 45
2020-09-07 12:00:00 17.2 19 Nordeste 42 Este 0 -- -- 52
2020-09-07 11:00:00 16.8 16 Nordeste 35 Nordeste 0 -- -- 54
2020-09-07 10:00:00 14.2 10 Nordeste 23 Nordeste 0 -- -- 64
2020-09-07 09:00:00 11.4 6 Este 15 Nordeste 0 -- -- 81
2020-09-07 08:00:00 9.8 6 Nordeste 13 Nordeste 0 -- -- 87
2020-09-07 07:00:00 10.2 9 Nordeste 14 Nordeste 0 -- -- 86
2020-09-07 06:00:00 10 5 Nordeste 12 Este 0 -- -- 86
2020-09-07 05:00:00 10.6 5 Nordeste 15 Nordeste 0 -- -- 84
2020-09-07 04:00:00 11 5 Nordeste 14 Este 0 -- -- 82
2020-09-07 03:00:00 11.6 7 Este 21 Nordeste 0 -- -- 78
2020-09-07 02:00:00 12 9 Este 22 Este 0 -- -- 75
2020-09-07 01:00:00 12.5 10 Este 29 Nordeste 0 -- -- 74
2020-09-07 00:00:00 13.1 13 Nordeste 28 Este 0 -- -- 71
2020-09-06 23:00:00 13.7 14 Este 33 Este 0 -- -- 67
2020-09-06 22:00:00 14.7 12 Este 35 Este 0 -- -- 62
2020-09-06 21:00:00 16.1 14 Este 33 Este 0 -- -- 57
2020-09-06 20:00:00 19.5 16 Este 38 Nordeste 0 -- -- 47
2020-09-06 19:00:00 22.7 17 Este 33 Este 0 -- -- 40
2020-09-06 18:00:00 24.2 14 Este 33 Este 0 -- -- 37
2020-09-06 17:00:00 24.8 17 Este 31 Este 0 -- -- 40
2020-09-06 16:00:00 23.9 14 Este 32 Este 0 -- -- 45
2020-09-06 15:00:00 22.8 18 Este 32 Este 0 -- -- 47
2020-09-06 14:00:00 22.5 15 Nordeste 36 Este 0 -- -- 48
2020-09-06 13:00:00 21 17 Nordeste 34 Este 0 -- -- 53
2020-09-06 12:00:00 19.7 17 Nordeste 33 Este 0 -- -- 58
2020-09-06 11:00:00 18.6 14 Este 33 Este 0 -- -- 62
2020-09-06 10:00:00 16.6 16 Este 34 Nordeste 0 -- -- 70
2020-09-06 09:00:00 14.3 13 Nordeste 23 Nordeste 0 -- -- 82
2020-09-06 08:00:00 13.2 10 Nordeste 22 Nordeste 0 -- -- 86
2020-09-06 07:00:00 13.3 8 Nordeste 26 Nordeste 0 -- -- 86
2020-09-06 06:00:00 13.8 11 Nordeste 30 Nordeste 0 -- -- 82
2020-09-06 05:00:00 14.2 12 Nordeste 24 Nordeste 0 -- -- 81
2020-09-06 04:00:00 14.6 13 Nordeste 29 Este 0 -- -- 79
2020-09-06 03:00:00 15 12 Nordeste 37 Este 0 -- -- 77
2020-09-06 02:00:00 15.4 14 Este 39 Este 0 -- -- 79
2020-09-06 01:00:00 15.6 17 Este 39 Este 0 -- -- 79
2020-09-06 00:00:00 15.9 17 Este 34 Este 0 -- -- 77
2020-09-05 23:00:00 16.4 17 Nordeste 39 Este 0 -- -- 74
2020-09-05 22:00:00 17.3 16 Este 39 Nordeste 0 -- -- 70
2020-09-05 21:00:00 19.5 14 Este 37 Este 0 -- -- 61
2020-09-05 20:00:00 23.1 18 Este 38 Este 0 -- -- 52
2020-09-05 19:00:00 26.8 16 Este 33 Este 0 -- -- 43
2020-09-05 18:00:00 29 16 Este 32 Nordeste 0 -- -- 36
2020-09-05 17:00:00 29.6 14 Este 32 Este 0 -- -- 35
2020-09-05 16:00:00 29.2 12 Nordeste 27 Este 0 -- -- 36
2020-09-05 15:00:00 28.6 14 Nordeste 28 Este 0 -- -- 38
2020-09-05 14:00:00 27.5 16 Nordeste 27 Este 0 -- -- 41
2020-09-05 13:00:00 26.2 14 Este 30 Este 0 -- -- 42
2020-09-05 12:00:00 24.6 17 Este 33 Este 0 -- -- 48
2020-09-05 11:00:00 22.7 17 Este 36 Este 0 -- -- 53
2020-09-05 10:00:00 20.3 13 Este 31 Este 0 -- -- 58
2020-09-05 09:00:00 17 7 Este 14 Este 0 -- -- 66
2020-09-05 08:00:00 15.4 6 Nordeste 16 Nordeste 0 -- -- 65
2020-09-05 07:00:00 16.4 7 Nordeste 15 Nordeste 0 -- -- 58
2020-09-05 06:00:00 16.6 8 Nordeste 13 Norte 0 -- -- 55
2020-09-05 05:00:00 16.7 8 Nordeste 14 Norte 0 -- -- 56
2020-09-05 04:00:00 13.6 3 Norte 9 Norte 0 -- -- 63
2020-09-05 03:00:00 16.2 7 Oeste 13 Sudoeste 0 -- -- 54
2020-09-05 02:00:00 19.6 6 Nordeste 12 Nordeste 0 -- -- 45
2020-09-05 01:00:00 19.9 4 Norte 23 Norte 0 -- -- 45
2020-09-05 00:00:00 20.8 8 Nordeste 22 Este 0 -- -- 39
2020-09-04 23:00:00 18 3 Norte 5 Noroeste 0 -- -- 40
2020-09-04 22:00:00 19.8 0 Calma 3 Noroeste 0 -- -- 40
2020-09-04 21:00:00 24.3 0 Calma 9 Oeste 0 -- -- 29
2020-09-04 20:00:00 30.9 8 Oeste 17 Oeste 0 -- -- 21
2020-09-04 19:00:00 32.7 5 Noroeste 19 Oeste 0 -- -- 19
2020-09-04 18:00:00 32.5 11 Oeste 21 Sudoeste 0 -- -- 19
2020-09-04 17:00:00 32.7 13 Oeste 21 Oeste 0 -- -- 19
2020-09-04 16:00:00 32.6 13 Oeste 21 Oeste 0 -- -- 19
2020-09-04 15:00:00 32.4 9 Sur 15 Sudoeste 0 -- -- 20
2020-09-04 14:00:00 30.3 4 Norte 10 Noroeste 0 -- -- 22
2020-09-04 13:00:00 30 3 Sudeste 10 Sudoeste 0 -- -- 23
2020-09-04 12:00:00 27 4 Sudeste 10 Nordeste 0 -- -- 27
2020-09-04 11:00:00 24.8 3 Este 12 Este 0 -- -- 31
2020-09-04 10:00:00 20.8 6 Este 13 Nordeste 0 -- -- 40
2020-09-04 09:00:00 15.5 6 Nordeste 12 Nordeste 0 -- -- 57
2020-09-04 08:00:00 13.5 5 Nordeste 11 Nordeste 0 -- -- 63
2020-09-04 07:00:00 14.5 6 Nordeste 12 Nordeste 0 -- -- 60
2020-09-04 06:00:00 14.9 6 Nordeste 11 Nordeste 0 -- -- 60
2020-09-04 05:00:00 15.6 7 Nordeste 10 Nordeste 0 -- -- 59
2020-09-04 04:00:00 15.8 5 Nordeste 9 Este 0 -- -- 58
2020-09-04 03:00:00 16.9 3 Nordeste 11 Nordeste 0 -- -- 56
2020-09-04 02:00:00 17.8 7 Nordeste 10 Nordeste 0 -- -- 53
2020-09-04 01:00:00 18.5 5 Nordeste 12 Nordeste 0 -- -- 45
2020-09-04 00:00:00 15.4 2 Norte 3 Norte 0 -- -- 50
2020-09-03 23:00:00 16.4 2 Noroeste 6 Nordeste 0 -- -- 48
2020-09-03 22:00:00 18.6 2 Noroeste 5 Noroeste 0 -- -- 42
2020-09-03 21:00:00 24 2 Sudeste 6 Norte 0 -- -- 36
2020-09-03 20:00:00 30.4 0 Calma 10 Este 0 -- -- 23
2020-09-03 19:00:00 31 4 Nordeste 13 Nordeste 0 -- -- 23
2020-09-03 18:00:00 31.5 4 Sudoeste 15 Noroeste 0 -- -- 23
2020-09-03 17:00:00 30 8 Norte 17 Norte 0 -- -- 25
2020-09-03 16:00:00 29.9 5 Oeste 15 Noroeste 0 -- -- 27
2020-09-03 15:00:00 27.6 9 Noroeste 21 Noroeste 0 -- -- 32
2020-09-03 14:00:00 28.1 4 Este 10 Sudeste 0 -- -- 33
2020-09-03 13:00:00 26.2 3 Sudeste 14 Este 0 -- -- 36
2020-09-03 12:00:00 23.2 6 Nordeste 13 Este 0 -- -- 43
2020-09-03 11:00:00 19.8 8 Este 13 Este 0 -- -- 56
2020-09-03 10:00:00 17.1 7 Nordeste 12 Nordeste 0 -- -- 67
2020-09-03 09:00:00 13.3 5 Nordeste 9 Nordeste 0 -- -- 84
2020-09-03 08:00:00 9.3 0 Calma 5 Noroeste 0 -- -- 93
2020-09-03 07:00:00 10.2 4 Norte 13 Oeste 0 -- -- 91
2020-09-03 06:00:00 11.4 2 Norte 9 Nordeste 0 -- -- 83
2020-09-03 05:00:00 12.6 3 Este 11 Nordeste 0 -- -- 79
2020-09-03 04:00:00 13.9 5 Nordeste 13 Este 0 -- -- 78
2020-09-03 03:00:00 14.5 6 Nordeste 13 Este 0 -- -- 76
2020-09-03 02:00:00 15.3 6 Nordeste 16 Este 0 -- -- 72
2020-09-03 01:00:00 16.2 8 Nordeste 19 Nordeste 0 -- -- 70
2020-09-03 00:00:00 17.1 8 Nordeste 19 Nordeste 0 -- -- 61
2020-09-02 23:00:00 16.2 4 Norte 7 Norte 0 -- -- 52
2020-09-02 22:00:00 17.2 2 Noroeste 6 Noroeste 0 -- -- 48
2020-09-02 21:00:00 22.4 4 Este 10 Este 0 -- -- 38
2020-09-02 20:00:00 26.6 6 Este 13 Sudeste 0 -- -- 31
2020-09-02 19:00:00 27.4 6 Este 18 Nordeste 0 -- -- 30
2020-09-02 18:00:00 26.9 5 Noroeste 17 Este 0 -- -- 30
2020-09-02 17:00:00 26.4 6 Noroeste 20 Norte 0 -- -- 31
2020-09-02 16:00:00 26.6 6 Sur 21 Norte 0 -- -- 33
2020-09-02 15:00:00 24.1 10 Norte 19 Este 0 -- -- 38
2020-09-02 14:00:00 24 8 Este 28 Este 0 -- -- 40
2020-09-02 13:00:00 22.2 12 Este 28 Este 0 -- -- 44
2020-09-02 12:00:00 20.4 12 Nordeste 34 Este 0 -- -- 50
2020-09-02 11:00:00 18.5 13 Este 28 Este 0 -- -- 57
2020-09-02 10:00:00 15.6 15 Nordeste 30 Este 0 -- -- 70
2020-09-02 09:00:00 12.3 7 Nordeste 14 Nordeste 0 -- -- 82
2020-09-02 08:00:00 10.8 5 Nordeste 17 Nordeste 0 -- -- 85
2020-09-02 07:00:00 11.3 8 Nordeste 18 Este 0 -- -- 84
2020-09-02 06:00:00 11.2 7 Este 19 Nordeste 0 -- -- 85
2020-09-02 05:00:00 11.4 7 Este 18 Este 0 -- -- 85
2020-09-02 04:00:00 12.2 9 Este 21 Nordeste 0 -- -- 82
2020-09-02 03:00:00 12.6 7 Este 18 Nordeste 0 -- -- 79
2020-09-02 02:00:00 13.1 8 Este 24 Nordeste 0 -- -- 78
2020-09-02 01:00:00 14 11 Nordeste 33 Este 0 -- -- 72
2020-09-02 00:00:00 14.8 13 Este 29 Nordeste 0 -- -- 68
2020-09-01 23:00:00 15.9 12 Nordeste 35 Este 0 -- -- 66
2020-09-01 22:00:00 18 14 Nordeste 38 Este 0 -- -- 55
2020-09-01 21:00:00 21 15 Nordeste 31 Nordeste 0 -- -- 40
2020-09-01 20:00:00 26.4 4 Nordeste 18 Nordeste 0 -- -- 25
2020-09-01 19:00:00 26.7 9 Nordeste 18 Norte 0 -- -- 24
2020-09-01 18:00:00 27.3 7 Este 18 Nordeste 0 -- -- 24
2020-09-01 17:00:00 26.3 6 Este 15 Sudeste 0 -- -- 26
2020-09-01 16:00:00 25.2 4 Sudeste 31 Sur 0 -- -- 27
2020-09-01 15:00:00 26.4 5 Este 13 Nordeste 0 -- -- 26
2020-09-01 14:00:00 26.4 5 Sur 15 Sudeste 0 -- -- 27
2020-09-01 13:00:00 25.2 5 Este 18 Sudeste 0 -- -- 29
2020-09-01 12:00:00 23.3 6 Nordeste 13 Este 0 -- -- 34
2020-09-01 11:00:00 21.4 5 Este 14 Nordeste 0 -- -- 37
2020-09-01 10:00:00 18.1 6 Este 15 Este 0 -- -- 51
2020-09-01 09:00:00 13.5 5 Nordeste 13 Nordeste 0 -- -- 69
2020-09-01 08:00:00 12.6 5 Nordeste 10 Nordeste 0 -- -- 70
2020-09-01 07:00:00 12.5 5 Este 11 Este 0 -- -- 70
2020-09-01 06:00:00 13.2 4 Este 10 Nordeste 0 -- -- 67
2020-09-01 05:00:00 13.9 4 Este 10 Nordeste 0 -- -- 64
2020-09-01 04:00:00 14.1 4 Este 6 Nordeste 0 -- -- 61
2020-09-01 03:00:00 14.4 5 Nordeste 13 Este 0 -- -- 59
2020-09-01 02:00:00 15.1 5 Nordeste 8 Nordeste 0 -- -- 49
2020-09-01 01:00:00 13.1 3 Nordeste 5 Nordeste 0 -- -- 55
2020-09-01 00:00:00 13.5 2 Noroeste 6 Nordeste 0 -- -- 52
2020-08-31 23:00:00 16.2 3 Norte 11 Nordeste 0 -- -- 45
2020-08-31 22:00:00 17.6 6 Nordeste 10 Nordeste 0 -- -- 40
2020-08-31 21:00:00 18.8 3 Norte 12 Noroeste 0 -- -- 35
2020-08-31 20:00:00 21.3 7 Noroeste 14 Norte 0 -- -- 27
2020-08-31 19:00:00 23 10 Oeste 20 Noroeste 0 -- -- 26
2020-08-31 18:00:00 21.5 5 Norte 18 Oeste 0 -- -- 28
2020-08-31 17:00:00 22.1 10 Oeste 22 Oeste 0 -- -- 27
2020-08-31 16:00:00 22 9 Norte 30 Sudoeste 0 -- -- 28
2020-08-31 15:00:00 21.5 8 Sur 24 Sudoeste 0 -- -- 31
2020-08-31 14:00:00 21.3 8 Sudoeste 28 Sudoeste 0 -- -- 33
2020-08-31 13:00:00 20.9 6 Sur 15 Sudoeste 0 -- -- 35
2020-08-31 12:00:00 19 4 Este 11 Sur 0 -- -- 43
2020-08-31 11:00:00 16.6 6 Sudeste 12 Este 0 -- -- 52
2020-08-31 10:00:00 12.7 6 Este 14 Nordeste 0 -- -- 67
2020-08-31 09:00:00 8 6 Norte 10 Nordeste 0 -- -- 86
2020-08-31 08:00:00 6.3 5 Norte 12 Nordeste 0 -- -- 89
2020-08-31 07:00:00 7 4 Nordeste 12 Nordeste 0 -- -- 87
2020-08-31 06:00:00 7.8 7 Nordeste 15 Nordeste 0 -- -- 84
2020-08-31 05:00:00 8 8 Nordeste 17 Nordeste 0 -- -- 82
2020-08-31 04:00:00 8.4 5 Nordeste 20 Nordeste 0 -- -- 81
2020-08-31 03:00:00 8.9 6 Este 16 Nordeste 0 -- -- 80
2020-08-31 02:00:00 9.1 6 Este 14 Este 0 -- -- 78
2020-08-31 01:00:00 10.1 6 Este 25 Este 0 -- -- 74
2020-08-31 00:00:00 10.9 9 Este 27 Este 0 -- -- 68
2020-08-30 23:00:00 12 12 Este 29 Este 0 -- -- 66
2020-08-30 22:00:00 13.7 11 Este 30 Este 0 -- -- 58
2020-08-30 21:00:00 15.9 14 Este 27 Este 0 -- -- 49
2020-08-30 20:00:00 20.4 6 Este 15 Nordeste 0 -- -- 32
2020-08-30 19:00:00 20.9 6 Norte 14 Este 0 -- -- 31
2020-08-30 18:00:00 19.4 6 Este 14 Oeste 0 -- -- 35
2020-08-30 17:00:00 19.7 5 Sudoeste 16 Norte 0 -- -- 36
2020-08-30 16:00:00 18.1 6 Nordeste 19 Nordeste 0 -- -- 38
2020-08-30 15:00:00 19 6 Sudeste 17 Norte 0 -- -- 40
2020-08-30 14:00:00 18.1 8 Nordeste 18 Nordeste 0 -- -- 41
2020-08-30 13:00:00 16 4 Nordeste 15 Este 0 -- -- 48
2020-08-30 12:00:00 15.1 8 Nordeste 20 Nordeste 0 -- -- 52
2020-08-30 11:00:00 13.9 8 Norte 14 Norte 0 -- -- 57
2020-08-30 10:00:00 13.4 3 Nordeste 7 Noroeste 0 -- -- 59
2020-08-30 09:00:00 9.8 2 Sur 5 Sudeste 0 -- -- 74
2020-08-30 08:00:00 4.7 0 Calma 6 Norte 0 -- -- 90
2020-08-30 07:00:00 5 3 Norte 5 Norte 0 -- -- 89
2020-08-30 06:00:00 5.1 2 Noroeste 5 Noroeste 0 -- -- 87
2020-08-30 05:00:00 4.8 2 Sudoeste 5 Sudoeste 0 -- -- 88
2020-08-30 04:00:00 5.3 3 Sudeste 10 Sudoeste 0 -- -- 88
2020-08-30 03:00:00 6.4 0 Calma 9 Nordeste 0 -- -- 82
2020-08-30 02:00:00 8.2 3 Este 8 Norte 0 -- -- 78
2020-08-30 01:00:00 9.7 6 Nordeste 10 Norte 0 -- -- 71
2020-08-30 00:00:00 9.6 5 Norte 14 Norte 0 -- -- 71
2020-08-29 23:00:00 10.9 6 Norte 25 Norte 0 -- -- 65
2020-08-29 22:00:00 12.9 15 Norte 31 Norte 0 -- -- 58
2020-08-29 21:00:00 14.3 15 Norte 39 Norte 0 -- -- 53
2020-08-29 20:00:00 16.9 23 Norte 37 Norte 0 -- -- 47
2020-08-29 19:00:00 18.5 26 Norte 41 Noroeste 0 -- -- 45
2020-08-29 18:00:00 19.3 24 Norte 39 Norte 0 -- -- 42
2020-08-29 17:00:00 19.9 24 Norte 46 Noroeste 0 -- -- 42
2020-08-29 16:00:00 17.7 28 Norte 41 Norte 0 -- -- 45
2020-08-29 15:00:00 17.6 27 Noroeste 40 Noroeste 0 -- -- 46
2020-08-29 14:00:00 16.7 28 Norte 40 Norte 0 -- -- 52
2020-08-29 13:00:00 17.1 21 Norte 40 Norte 0 -- -- 47
2020-08-29 12:00:00 18.2 22 Norte 38 Norte 0 -- -- 45
2020-08-29 11:00:00 16.2 20 Noroeste 32 Noroeste 0 -- -- 52
2020-08-29 10:00:00 14.2 13 Noroeste 25 Noroeste 0 -- -- 64
2020-08-29 09:00:00 11.2 17 Noroeste 24 Noroeste 0 -- -- 77
2020-08-29 08:00:00 8.1 10 Noroeste 15 Noroeste 0 -- -- 87
2020-08-29 07:00:00 8.2 11 Noroeste 19 Noroeste 0 -- -- 83
2020-08-29 06:00:00 9 14 Noroeste 20 Noroeste 0 -- -- 78
2020-08-29 05:00:00 9.2 7 Noroeste 16 Noroeste 0 -- -- 72
2020-08-29 04:00:00 10.2 13 Noroeste 18 Noroeste 0 -- -- 70
2020-08-29 03:00:00 9.2 6 Noroeste 9 Noroeste 0 -- -- 70
2020-08-29 02:00:00 11.8 7 Norte 20 Norte 0 -- -- 62
2020-08-29 01:00:00 14.5 11 Norte 26 Nordeste 0 -- -- 53
2020-08-29 00:00:00 15.4 15 Norte 32 Norte 0 -- -- 49
2020-08-28 23:00:00 16.4 14 Norte 30 Nordeste 0 -- -- 45
2020-08-28 22:00:00 17.3 15 Norte 31 Norte 0 -- -- 44
2020-08-28 21:00:00 18.7 23 Norte 37 Noroeste 0 -- -- 43
2020-08-28 20:00:00 21.4 23 Noroeste 42 Noroeste 0 -- -- 38
2020-08-28 19:00:00 23.5 25 Noroeste 36 Noroeste 0 -- -- 33
2020-08-28 18:00:00 25 26 Noroeste 41 Oeste 0 -- -- 28
2020-08-28 17:00:00 24.6 26 Noroeste 45 Oeste 0 -- -- 28
2020-08-28 16:00:00 24.7 23 Oeste 39 Oeste 0 -- -- 26
2020-08-28 15:00:00 23.7 21 Oeste 40 Oeste 0 -- -- 34
2020-08-28 14:00:00 23.4 20 Oeste 36 Oeste 0 -- -- 38
2020-08-28 13:00:00 23 17 Noroeste 34 Oeste 0 -- -- 39
2020-08-28 12:00:00 22.3 19 Noroeste 31 Noroeste 0 -- -- 39
2020-08-28 11:00:00 21.1 21 Noroeste 35 Noroeste 0 -- -- 47
2020-08-28 10:00:00 19.8 21 Noroeste 30 Noroeste 0 -- -- 56
2020-08-28 09:00:00 17.8 17 Noroeste 25 Noroeste 0 -- -- 71
2020-08-28 08:00:00 16.2 14 Noroeste 21 Noroeste 0 -- -- 82
2020-08-28 07:00:00 17.3 3 Norte 12 Este 0 -- -- 78
2020-08-28 06:00:00 18.1 7 Noroeste 10 Noroeste 0 -- -- 72
2020-08-28 05:00:00 18.2 3 Norte 8 Norte 0 -- -- 69
2020-08-28 04:00:00 18.4 5 Norte 14 Norte 0 -- -- 68
2020-08-28 03:00:00 19.3 6 Norte 18 Noroeste 0 -- -- 65
2020-08-28 02:00:00 19.6 6 Noroeste 21 Noroeste 0 -- -- 65
2020-08-28 01:00:00 21.7 13 Noroeste 27 Noroeste 0 -- -- 57
2020-08-28 00:00:00 22.9 21 Noroeste 29 Noroeste 0 -- -- 52
2020-08-27 23:00:00 23.7 21 Noroeste 34 Noroeste 0 -- -- 51
2020-08-27 22:00:00 24.6 21 Noroeste 32 Noroeste 0 -- -- 48
2020-08-27 21:00:00 26.8 20 Noroeste 34 Noroeste 0 -- -- 44
2020-08-27 20:00:00 31 9 Noroeste 25 Noroeste 0 -- -- 29
2020-08-27 19:00:00 32 14 Noroeste 24 Noroeste 0 -- -- 27
2020-08-27 18:00:00 32.3 13 Noroeste 26 Norte 0 -- -- 24
2020-08-27 17:00:00 31.8 17 Noroeste 33 Oeste 0 -- -- 26
2020-08-27 16:00:00 31.5 14 Noroeste 28 Noroeste 0 -- -- 26
2020-08-27 15:00:00 30.5 12 Noroeste 27 Oeste 0 -- -- 32
2020-08-27 14:00:00 30.1 5 Sur 17 Sudoeste 0 -- -- 38
2020-08-27 13:00:00 27.8 9 Oeste 19 Noroeste 0 -- -- 47
2020-08-27 12:00:00 25.9 6 Nordeste 12 Nordeste 0 -- -- 55
2020-08-27 11:00:00 25.2 3 Sudeste 12 Nordeste 0 -- -- 60
2020-08-27 10:00:00 21.9 5 Nordeste 10 Este 0 -- -- 72
2020-08-27 09:00:00 18.2 5 Nordeste 8 Nordeste 0 -- -- 88
2020-08-27 08:00:00 14.8 3 Nordeste 4 Norte 0 -- -- 97
2020-08-27 07:00:00 15.1 3 Norte 5 Nordeste 0 -- -- 95
2020-08-27 06:00:00 15.7 3 Norte 4 Norte 0 -- -- 93
2020-08-27 05:00:00 16.9 2 Nordeste 9 Este 0 -- -- 88
2020-08-27 04:00:00 18.4 6 Nordeste 13 Este 0 -- -- 87
2020-08-27 03:00:00 19.2 5 Nordeste 12 Nordeste 0 -- -- 83
2020-08-27 02:00:00 19.7 6 Nordeste 13 Este 0 -- -- 79
2020-08-27 01:00:00 21.6 6 Nordeste 14 Nordeste 0 -- -- 59
2020-08-27 00:00:00 22.2 10 Noroeste 12 Noroeste 0 -- -- 52
2020-08-26 23:00:00 20.1 2 Norte 5 Noroeste 0 -- -- 57
2020-08-26 22:00:00 22.4 2 Norte 4 Norte 0 -- -- 48
2020-08-26 21:00:00 27.5 3 Norte 13 Noroeste 0 -- -- 38
2020-08-26 20:00:00 31.6 7 Noroeste 19 Noroeste 0 -- -- 30
2020-08-26 19:00:00 32.4 13 Noroeste 28 Oeste 0 -- -- 27
2020-08-26 18:00:00 32.9 10 Noroeste 25 Noroeste 0 -- -- 22
2020-08-26 17:00:00 32.5 13 Noroeste 24 Oeste 0 -- -- 26
2020-08-26 16:00:00 31.8 15 Oeste 22 Oeste 0 -- -- 26
2020-08-26 15:00:00 30.5 7 Noroeste 21 Oeste 0 -- -- 31
2020-08-26 14:00:00 29.1 7 Norte 20 Norte 0 -- -- 36
2020-08-26 13:00:00 27.2 8 Nordeste 17 Nordeste 0 -- -- 44
2020-08-26 12:00:00 24.8 8 Nordeste 16 Este 0 -- -- 50
2020-08-26 11:00:00 22.9 8 Este 16 Nordeste 0 -- -- 58
2020-08-26 10:00:00 20.1 7 Este 17 Este 0 -- -- 70
2020-08-26 09:00:00 16.6 6 Nordeste 10 Nordeste 0 -- -- 84
2020-08-26 08:00:00 12.9 0 Calma 6 Norte 0 -- -- 91
2020-08-26 07:00:00 13.9 4 Norte 11 Norte 0 -- -- 90
2020-08-26 06:00:00 15.5 6 Nordeste 10 Nordeste 0 -- -- 85
2020-08-26 05:00:00 15.9 5 Nordeste 11 Este 0 -- -- 82
2020-08-26 04:00:00 16.3 4 Este 14 Nordeste 0 -- -- 80
2020-08-26 03:00:00 17.3 7 Nordeste 14 Nordeste 0 -- -- 75
2020-08-26 02:00:00 18.5 7 Nordeste 19 Este 0 -- -- 68
2020-08-26 01:00:00 19.4 9 Nordeste 19 Nordeste 0 -- -- 63
2020-08-26 00:00:00 20.4 8 Este 20 Este 0 -- -- 59
2020-08-25 23:00:00 22.1 8 Norte 14 Norte 0 -- -- 44
2020-08-25 22:00:00 20.2 0 Calma 6 Norte 0 -- -- 40
2020-08-25 21:00:00 25.9 4 Noroeste 13 Oeste 0 -- -- 27
2020-08-25 20:00:00 30.7 9 Oeste 23 Noroeste 0 -- -- 18
2020-08-25 19:00:00 33.5 14 Oeste 28 Oeste 0 -- -- 17
2020-08-25 18:00:00 33.4 15 Oeste 36 Oeste 0 -- -- 17
2020-08-25 17:00:00 33.8 14 Oeste 30 Oeste 0 -- -- 18
2020-08-25 16:00:00 33.1 11 Sudoeste 35 Oeste 0 -- -- 22
2020-08-25 15:00:00 31.4 19 Oeste 31 Oeste 0 -- -- 26
2020-08-25 14:00:00 30.3 15 Oeste 27 Oeste 0 -- -- 30
2020-08-25 13:00:00 28.8 13 Oeste 24 Oeste 0 -- -- 33
2020-08-25 12:00:00 27.7 5 Oeste 15 Noroeste 0 -- -- 35
2020-08-25 11:00:00 25.3 2 Nordeste 5 Nordeste 0 -- -- 43
2020-08-25 10:00:00 22.1 3 Sudeste 6 Este 0 -- -- 49
2020-08-25 09:00:00 15.6 3 Este 6 Sudeste 0 -- -- 71
2020-08-25 08:00:00 10.7 0 Calma 3 Norte 0 -- -- 90
2020-08-25 07:00:00 11.1 0 Calma 5 Noroeste 0 -- -- 87
2020-08-25 06:00:00 11.5 3 Norte 5 Norte 0 -- -- 85
2020-08-25 05:00:00 12.6 3 Norte 6 Norte 0 -- -- 81
2020-08-25 04:00:00 13.3 3 Noroeste 10 Oeste 0 -- -- 74
2020-08-25 03:00:00 12.7 2 Norte 3 Norte 0 -- -- 76
2020-08-25 02:00:00 13.2 0 Calma 12 Sur 0 -- -- 75
2020-08-25 01:00:00 14.7 2 Sur 8 Sudeste 0 -- -- 69
2020-08-25 00:00:00 15.9 0 Calma 3 Norte 0 -- -- 61
2020-08-24 23:00:00 17.2 0 Calma 5 Norte 0 -- -- 59
2020-08-24 22:00:00 18.6 0 Calma 8 Noroeste 0 -- -- 52
2020-08-24 21:00:00 24.5 6 Noroeste 12 Oeste 0 -- -- 38
2020-08-24 20:00:00 28.7 7 Norte 14 Oeste 0 -- -- 28
2020-08-24 19:00:00 29.5 5 Nordeste 17 Oeste 0 -- -- 29
2020-08-24 18:00:00 30.7 5 Sur 17 Norte 0 -- -- 28
2020-08-24 17:00:00 29 5 Noroeste 13 Oeste 0 -- -- 31
2020-08-24 16:00:00 27.1 6 Norte 13 Norte 0 -- -- 33
2020-08-24 15:00:00 26.7 5 Este 18 Nordeste 0 -- -- 37
2020-08-24 14:00:00 25.3 6 Norte 16 Este 0 -- -- 41
2020-08-24 13:00:00 23.8 8 Nordeste 19 Este 0 -- -- 49
2020-08-24 12:00:00 22 12 Nordeste 25 Este 0 -- -- 53
2020-08-24 11:00:00 20 12 Este 22 Este 0 -- -- 59
2020-08-24 10:00:00 17.7 9 Este 27 Este 0 -- -- 69
2020-08-24 09:00:00 14.2 10 Nordeste 21 Este 0 -- -- 84
2020-08-24 08:00:00 12.5 8 Nordeste 18 Este 0 -- -- 90
2020-08-24 07:00:00 12.7 9 Nordeste 19 Nordeste 0 -- -- 89
2020-08-24 06:00:00 12.8 10 Nordeste 18 Nordeste 0 -- -- 90
2020-08-24 05:00:00 13.2 9 Nordeste 18 Nordeste 0 -- -- 88
2020-08-24 04:00:00 13.5 7 Nordeste 18 Este 0 -- -- 87
2020-08-24 03:00:00 14 7 Este 18 Nordeste 0 -- -- 83
2020-08-24 02:00:00 15 9 Este 29 Este 0 -- -- 78
2020-08-24 01:00:00 16.1 12 Nordeste 28 Nordeste 0 -- -- 74
2020-08-24 00:00:00 17.6 12 Este 28 Nordeste 0 -- -- 69
2020-08-23 23:00:00 19.2 10 Nordeste 21 Nordeste 0 -- -- 62
2020-08-23 22:00:00 21.6 8 Nordeste 16 Nordeste 0 -- -- 42
2020-08-23 21:00:00 25 5 Este 13 Nordeste 0 -- -- 35
2020-08-23 20:00:00 27.6 8 Nordeste 15 Nordeste 0 -- -- 29
2020-08-23 19:00:00 28.8 4 Nordeste 14 Noroeste 0 -- -- 26
2020-08-23 18:00:00 27.6 6 Norte 15 Norte 0 -- -- 27
2020-08-23 17:00:00 27.9 6 Nordeste 17 Norte 0 -- -- 26
2020-08-23 16:00:00 26.5 11 Nordeste 19 Norte 0 -- -- 29
2020-08-23 15:00:00 25.8 6 Este 19 Sudeste 0 -- -- 34
2020-08-23 14:00:00 24.2 8 Nordeste 20 Nordeste 0 -- -- 41
2020-08-23 13:00:00 23.1 11 Nordeste 22 Nordeste 0 -- -- 50
2020-08-23 12:00:00 21.3 9 Nordeste 24 Este 0 -- -- 56
2020-08-23 11:00:00 19.2 12 Nordeste 24 Nordeste 0 -- -- 65
2020-08-23 10:00:00 17 15 Nordeste 27 Nordeste 0 -- -- 74
2020-08-23 09:00:00 14.2 8 Nordeste 21 Nordeste 0 -- -- 89
2020-08-23 08:00:00 12.6 9 Nordeste 15 Nordeste 0 -- -- 92
2020-08-23 07:00:00 12.5 7 Nordeste 16 Este 0 -- -- 92
2020-08-23 06:00:00 12.8 6 Nordeste 13 Nordeste 0 -- -- 92
2020-08-23 05:00:00 13.2 7 Nordeste 16 Este 0 -- -- 91
2020-08-23 04:00:00 13.1 5 Este 12 Nordeste 0 -- -- 92
2020-08-23 03:00:00 13.5 6 Este 17 Este 0 -- -- 91
2020-08-23 02:00:00 14.2 7 Este 21 Nordeste 0 -- -- 88
2020-08-23 01:00:00 14.9 8 Este 22 Este 0 -- -- 86
2020-08-23 00:00:00 16.3 8 Este 28 Nordeste 0 -- -- 80
2020-08-22 23:00:00 14.9 2 Norte 3 Norte 0 -- -- 71
2020-08-22 22:00:00 17.3 0 Calma 5 Norte 0 -- -- 58
2020-08-22 21:00:00 23 5 Norte 15 Noroeste 0 -- -- 35
2020-08-22 20:00:00 26 14 Noroeste 20 Noroeste 0 -- -- 27
2020-08-22 19:00:00 27.1 6 Noroeste 18 Noroeste 0 -- -- 25
2020-08-22 18:00:00 26.7 8 Norte 17 Oeste 0 -- -- 26
2020-08-22 17:00:00 26.2 9 Noroeste 19 Oeste 0 -- -- 29
2020-08-22 16:00:00 25 7 Noroeste 18 Oeste 0 -- -- 37
2020-08-22 15:00:00 24.5 6 Oeste 13 Este 0 -- -- 41
2020-08-22 14:00:00 23.6 6 Este 14 Nordeste 0 -- -- 48
2020-08-22 13:00:00 22.2 3 Este 12 Nordeste 0 -- -- 55
2020-08-22 12:00:00 20.2 5 Sur 12 Sudeste 0 -- -- 68
2020-08-22 11:00:00 15.2 4 Nordeste 11 Este 0 -- -- 92
2020-08-22 10:00:00 13 3 Este 10 Nordeste 0 -- -- 98
2020-08-22 09:00:00 12 5 Este 10 Este 0 -- -- 98
2020-08-22 08:00:00 10.9 2 Nordeste 6 Noroeste 0 -- -- 99
2020-08-22 07:00:00 9.6 0 Calma 4 Norte 0 -- -- 97
2020-08-22 06:00:00 10.4 2 Norte 10 Noroeste 0 -- -- 95
2020-08-22 05:00:00 11.7 6 Noroeste 8 Noroeste 0 -- -- 90
2020-08-22 04:00:00 13.1 9 Noroeste 14 Noroeste 0 -- -- 87
2020-08-22 03:00:00 13.7 12 Noroeste 16 Noroeste 0 -- -- 85
2020-08-22 02:00:00 14.1 9 Noroeste 16 Noroeste 0 -- -- 86
2020-08-22 01:00:00 15.2 12 Noroeste 21 Oeste 0 -- -- 82
2020-08-22 00:00:00 16.3 14 Oeste 25 Oeste 0 -- -- 77
2020-08-21 23:00:00 17.1 15 Sudoeste 26 Sudoeste 0 -- -- 67
2020-08-21 22:00:00 17.6 13 Sudoeste 22 Sudoeste 0 -- -- 64
2020-08-21 21:00:00 21.1 12 Sudoeste 30 Oeste 0 -- -- 51
2020-08-21 20:00:00 23.8 20 Oeste 32 Sudoeste 0 -- -- 39
2020-08-21 19:00:00 25.2 23 Oeste 33 Sudoeste 0 -- -- 30
2020-08-21 18:00:00 25.1 23 Oeste 32 Oeste 0 -- -- 33
2020-08-21 17:00:00 26 20 Sudoeste 36 Sudoeste 0 -- -- 49
2020-08-21 16:00:00 23.7 24 Sudoeste 41 Oeste 0 -- -- 57
2020-08-21 15:00:00 22.1 19 Oeste 28 Sudoeste 0 -- -- 66
2020-08-21 14:00:00 19.6 13 Oeste 21 Oeste 0 -- -- 79
2020-08-21 13:00:00 18.9 11 Oeste 19 Noroeste 0 -- -- 85
2020-08-21 12:00:00 18.7 12 Sudoeste 24 Sudoeste 0 -- -- 83
2020-08-21 11:00:00 18 11 Sudoeste 18 Oeste 0 -- -- 87
2020-08-21 10:00:00 18 12 Sudoeste 15 Oeste 0 -- -- 88
2020-08-21 09:00:00 16.8 9 Oeste 15 Oeste 0 -- -- 90
2020-08-21 08:00:00 16.6 9 Oeste 15 Sudoeste 0 -- -- 95
2020-08-21 07:00:00 16.6 6 Sudoeste 19 Sudoeste 0 -- -- 97
2020-08-21 06:00:00 16.6 10 Sudoeste 18 Sudoeste 0 -- -- 96
2020-08-21 05:00:00 16.6 8 Sudoeste 19 Sudoeste 0 -- -- 96
2020-08-21 04:00:00 16.3 9 Sudoeste 14 Sudoeste 0 -- -- 97
2020-08-21 03:00:00 16.2 13 Sudoeste 22 Sudoeste 0 -- -- 98
2020-08-21 02:00:00 16.3 12 Sudoeste 18 Sudoeste 0 -- -- 98
2020-08-21 01:00:00 16.1 10 Sudoeste 26 Sudoeste 0.4 -- -- 99
2020-08-21 00:00:00 16.2 14 Sudoeste 34 Sudoeste 2.4 -- -- 98
2020-08-20 23:00:00 17.9 9 Oeste 19 Oeste 1 -- -- 97
2020-08-20 22:00:00 18.2 17 Oeste 39 Oeste 0.2 -- -- 95
2020-08-20 21:00:00 18.9 25 Oeste 46 Oeste 0.4 -- -- 93
2020-08-20 20:00:00 22.6 23 Noroeste 57 Sudoeste 0 -- -- 75
2020-08-20 19:00:00 27.7 36 Sudoeste 52 Sudoeste 0 -- -- 46
2020-08-20 18:00:00 27.9 20 Oeste 38 Sudoeste 0 -- -- 47
2020-08-20 17:00:00 27.6 24 Sudoeste 38 Sudoeste 0 -- -- 46
2020-08-20 16:00:00 28.1 26 Sudoeste 50 Sudoeste 0 -- -- 44
2020-08-20 15:00:00 29.9 23 Sur 46 Sudoeste 0 -- -- 38
2020-08-20 14:00:00 27.7 21 Sudoeste 43 Sur 0 -- -- 43
2020-08-20 13:00:00 27.9 23 Sudoeste 39 Sudoeste 0 -- -- 47
2020-08-20 12:00:00 26.4 20 Sudoeste 36 Sudoeste 0 -- -- 51
2020-08-20 11:00:00 22.2 17 Sudoeste 30 Sudoeste 0 -- -- 55
2020-08-20 10:00:00 20.3 12 Sudoeste 22 Sudoeste 0 -- -- 59
2020-08-20 09:00:00 19.9 10 Sur 16 Sur 0 -- -- 60
2020-08-20 08:00:00 16.3 5 Sur 11 Sur 0 -- -- 62
2020-08-20 07:00:00 16.4 5 Sur 9 Sur 0 -- -- 60
2020-08-20 06:00:00 14.4 3 Sur 8 Sudeste 0 -- -- 70
2020-08-20 05:00:00 16.2 6 Sur 10 Sudeste 0 -- -- 55
2020-08-20 04:00:00 17.4 5 Sur 11 Sur 0 -- -- 51
2020-08-20 03:00:00 18.1 8 Sudoeste 13 Sudoeste 0 -- -- 52
2020-08-20 02:00:00 16.6 10 Sudoeste 12 Oeste 0 -- -- 55
2020-08-20 01:00:00 16.5 11 Oeste 19 Oeste 0 -- -- 53
2020-08-20 00:00:00 18.5 13 Oeste 15 Oeste 0 -- -- 43